Terminal Aerodrome Forecast
Issued by NWS Pocatello, ID

Home | Current Version | Previous Version | Text Only | Print | Product List | Glossary On
Versions: 1 2 3 4 5 6 7 8 9 10 11 12
000
FTUS45 KPIH 250500
TAFBYI
TAF
KBYI 250520Z 2506/2606 17010KT P6SM SKC
     FM251700 16011KT P6SM FEW130 SCT200
     FM252000 22012G22KT P6SM SCT130 BKN200
     FM260200 24011KT P6SM OVC130=

USA.gov is the U.S. government's official web portal to all federal, state and local government web resources and services.